createdAt,value
2019-04-11T00:01:56.310Z,101244.28
2019-04-11T00:04:26.201Z,101254.70
2019-04-11T00:06:56.121Z,101252.61
2019-04-11T00:09:26.920Z,101254.80
2019-04-11T00:11:57.928Z,101260.05
2019-04-11T00:14:27.603Z,101264.42
2019-04-11T00:16:58.737Z,101263.56
2019-04-11T00:19:29.401Z,101264.89
2019-04-11T00:21:59.441Z,101265.78
2019-04-11T00:24:29.273Z,101269.23
2019-04-11T00:27:00.369Z,101275.23
2019-04-11T00:29:30.275Z,101277.33
2019-04-11T00:32:01.122Z,101273.87
2019-04-11T00:34:31.112Z,101277.79
2019-04-11T00:37:01.000Z,101277.82
2019-04-11T00:39:31.862Z,101279.61
2019-04-11T00:42:02.050Z,101276.19
2019-04-11T00:44:32.769Z,101278.84
2019-04-11T00:47:02.389Z,101274.55
2019-04-11T00:49:32.587Z,101283.18
2019-04-11T00:52:02.665Z,101281.45
2019-04-11T00:54:33.160Z,101278.44
2019-04-11T00:57:02.873Z,101281.89
2019-04-11T00:59:32.514Z,101279.79
2019-04-11T01:02:02.243Z,101284.09
2019-04-11T01:04:32.733Z,101289.27
2019-04-11T01:07:02.758Z,101284.18
2019-04-11T01:09:32.673Z,101295.84
2019-04-11T01:12:02.597Z,101299.29
2019-04-11T01:14:32.196Z,101297.22
2019-04-11T01:17:01.764Z,101300.69
2019-04-11T01:19:31.347Z,101300.73
2019-04-11T01:22:01.269Z,101298.17
2019-04-11T01:24:31.523Z,101301.65
2019-04-11T01:27:01.570Z,101293.94
2019-04-11T01:29:31.407Z,101297.43
2019-04-11T01:32:06.484Z,101297.02
2019-04-11T01:34:37.128Z,101303.52
2019-04-11T01:37:07.225Z,101303.09
2019-04-11T01:39:41.242Z,101306.98
2019-04-11T01:42:11.183Z,101306.53
2019-04-11T01:44:41.001Z,101303.92
2019-04-11T01:47:12.957Z,101305.23
2019-04-11T01:49:42.684Z,101303.96
2019-04-11T01:52:12.667Z,101307.44
2019-04-11T01:54:42.275Z,101317.38
2019-04-11T01:57:11.858Z,101313.11
2019-04-11T01:59:41.758Z,101322.61
2019-04-11T02:02:28.899Z,101322.65
2019-04-11T02:05:00.769Z,101320.51
2019-04-11T02:07:30.985Z,101327.39
2019-04-11T02:10:00.714Z,101324.42
2019-04-11T02:12:31.024Z,101331.31
2019-04-11T02:15:00.818Z,101332.61
2019-04-11T02:20:02.776Z,101334.38
2019-04-11T02:22:49.215Z,101344.77
2019-04-11T02:25:38.704Z,101343.47
2019-04-11T02:28:10.626Z,101346.06
2019-04-11T02:30:43.674Z,101347.79
2019-04-11T02:33:15.327Z,101352.09
2019-04-11T02:35:47.081Z,101348.67
2019-04-11T02:38:16.583Z,101347.84
2019-04-11T02:40:47.977Z,101345.28
2019-04-11T02:43:18.051Z,101348.73
2019-04-11T02:46:00.081Z,101350.88
2019-04-11T02:48:20.655Z,101352.61
2019-04-11T02:50:51.164Z,101356.92
2019-04-11T02:53:22.085Z,101359.98
2019-04-11T02:55:54.115Z,101366.86
2019-04-11T02:58:25.541Z,101363.00
2019-04-11T03:00:58.892Z,101363.44
2019-04-11T03:03:27.477Z,101364.28
2019-04-11T03:05:58.123Z,101366.03
2019-04-11T03:08:31.788Z,101363.86
2019-04-11T03:11:01.798Z,101355.28
2019-04-11T03:13:33.441Z,101360.45
2019-04-11T03:16:19.009Z,101363.04
2019-04-11T03:18:53.197Z,101362.20
2019-04-11T03:21:13.726Z,101368.23
2019-04-11T03:23:39.744Z,101373.39
2019-04-11T03:26:12.365Z,101372.09
2019-04-11T03:28:46.262Z,101374.70
2019-04-11T03:31:59.134Z,101378.98
2019-04-11T03:39:12.010Z,101377.31
2019-04-11T03:41:32.523Z,101377.73
2019-04-11T03:44:00.392Z,101376.87
2019-04-11T03:46:40.412Z,101372.56
2019-04-11T03:49:03.903Z,101376.87
2019-04-11T03:51:27.677Z,101379.89
2019-04-11T03:53:59.167Z,101381.59
2019-04-11T03:56:30.425Z,101388.48
2019-04-11T03:59:01.416Z,101388.06
2019-04-11T04:01:32.038Z,101395.35
2019-04-11T04:04:02.800Z,101397.08
2019-04-11T04:06:33.575Z,101401.80
2019-04-11T04:09:04.255Z,101402.66
2019-04-11T04:11:35.381Z,101406.53
2019-04-11T04:14:08.142Z,101407.81
2019-04-11T04:16:47.847Z,101409.97
2019-04-11T04:19:25.118Z,101409.97
2019-04-11T04:21:57.583Z,101417.25
2019-04-11T04:24:34.169Z,101409.95
2019-04-11T04:27:02.247Z,101412.10
2019-04-11T04:29:36.338Z,101417.70
2019-04-11T04:32:06.033Z,101415.98
2019-04-11T04:34:36.759Z,101425.87
2019-04-11T04:37:07.835Z,101425.41
2019-04-11T04:39:39.760Z,101426.70
2019-04-11T04:42:21.210Z,101439.16
2019-04-11T04:44:42.867Z,101435.73
2019-04-11T04:47:21.118Z,101437.00
2019-04-11T04:49:45.876Z,101433.57
2019-04-11T04:52:16.416Z,101448.59
2019-04-11T04:54:46.533Z,101449.04
2019-04-11T04:57:18.266Z,101453.31
2019-04-11T04:59:48.979Z,101456.31
2019-04-11T05:02:20.514Z,101450.73
2019-04-11T05:04:49.818Z,101458.89
2019-04-11T05:07:19.551Z,101462.34
2019-04-11T05:09:50.373Z,101466.19
2019-04-11T05:12:20.626Z,101470.05
2019-04-11T05:14:51.781Z,101470.05
2019-04-11T05:17:23.100Z,101471.77
2019-04-11T05:19:52.895Z,101473.92
2019-04-11T05:22:22.564Z,101478.20
2019-04-11T05:24:52.413Z,101479.07
2019-04-11T05:27:22.943Z,101478.23
2019-04-11T05:29:53.558Z,101481.67
2019-04-11T05:32:23.963Z,101468.34
2019-04-11T05:34:54.427Z,101491.98
2019-04-11T05:37:24.030Z,101488.55
2019-04-11T05:39:53.895Z,101495.42
2019-04-11T05:42:26.710Z,101499.71
2019-04-11T05:44:54.884Z,101496.71
2019-04-11T05:47:25.593Z,101493.28
2019-04-11T05:49:59.095Z,101496.72
2019-04-11T05:52:31.919Z,101492.02
2019-04-11T05:55:02.820Z,101485.56
2019-04-11T05:57:35.816Z,101492.44
2019-04-11T06:00:08.168Z,101483.86
2019-04-11T06:02:39.554Z,101494.17
2019-04-11T06:05:23.826Z,101491.60
2019-04-11T06:07:57.594Z,101489.00
2019-04-11T06:10:28.345Z,101492.03
2019-04-11T06:13:12.552Z,101490.75
2019-04-11T06:15:47.232Z,101491.61
2019-04-11T06:18:32.493Z,101495.03
2019-04-11T06:21:02.561Z,101491.57
2019-04-11T06:23:45.575Z,101495.88
2019-04-11T06:26:18.745Z,101507.89
2019-04-11T06:28:52.863Z,101510.45
2019-04-11T06:31:42.256Z,101515.59
2019-04-11T06:34:11.944Z,101515.14
2019-04-11T06:36:56.910Z,101520.73
2019-04-11T06:39:27.401Z,101520.27
2019-04-11T06:42:09.271Z,101515.52
2019-04-11T06:44:50.609Z,101518.95
2019-04-11T06:47:38.472Z,101516.79
2019-04-11T06:50:09.093Z,101519.80
2019-04-11T06:52:41.679Z,101524.06
2019-04-11T06:55:30.752Z,101523.62
2019-04-11T06:58:08.040Z,101524.05
2019-04-11T07:00:41.014Z,101534.75
2019-04-11T07:03:19.607Z,101533.42
2019-04-11T07:05:44.844Z,101533.88
2019-04-11T07:08:16.160Z,101538.17
2019-04-11T07:10:47.371Z,101534.29
2019-04-11T07:13:18.681Z,101533.34
2019-04-11T07:15:49.253Z,101536.80
2019-04-11T07:18:37.724Z,101534.23
2019-04-11T07:21:10.513Z,101539.81
2019-04-11T07:23:59.660Z,101536.75
2019-04-11T07:26:35.241Z,101521.23
2019-04-11T07:29:21.554Z,101530.55
2019-04-11T07:32:00.794Z,101533.89
2019-04-11T07:34:48.338Z,101533.26
2019-04-11T07:37:32.619Z,101520.63
2019-04-11T07:40:15.564Z,101527.77
2019-04-11T07:42:53.317Z,101530.50
2019-04-11T07:45:41.684Z,101529.61
2019-04-11T07:48:13.516Z,101524.69
2019-04-11T07:50:44.399Z,101532.83
2019-04-11T07:53:15.599Z,101531.02
2019-04-11T07:55:46.600Z,101536.44
2019-04-11T07:58:26.817Z,101525.74
2019-04-11T08:01:01.637Z,101526.28
2019-04-11T08:03:35.944Z,101527.27
2019-04-11T08:06:07.568Z,101529.65
2019-04-11T08:08:47.433Z,101525.22
2019-04-11T08:11:21.263Z,101521.70
2019-04-11T08:13:56.039Z,101522.35
2019-04-11T08:16:27.325Z,101526.83
2019-04-11T08:19:15.358Z,101526.44
2019-04-11T08:22:03.097Z,101533.41
2019-04-11T08:24:40.653Z,101532.91
2019-04-11T08:27:30.179Z,101527.17
2019-04-11T08:30:02.688Z,101537.03
2019-04-11T08:32:44.148Z,101537.25
2019-04-11T08:35:28.362Z,101536.95
2019-04-11T08:38:01.008Z,101534.70
2019-04-11T08:40:35.750Z,101536.64
2019-04-11T08:43:08.196Z,101533.07
2019-04-11T08:45:49.124Z,101535.02
2019-04-11T08:48:19.306Z,101532.11
2019-04-11T08:50:50.578Z,101536.80
2019-04-11T08:53:20.659Z,101533.98
2019-04-11T08:55:57.172Z,101534.05
2019-04-11T08:58:28.900Z,101531.08
2019-04-11T09:01:00.738Z,101537.03
2019-04-11T09:03:42.019Z,101538.84
2019-04-11T09:06:14.723Z,101538.02
2019-04-11T09:08:50.970Z,101536.56
2019-04-11T09:11:22.705Z,101537.10
2019-04-11T09:14:10.175Z,101542.02
2019-04-11T09:16:47.901Z,101534.28
2019-04-11T09:19:35.336Z,101532.02
2019-04-11T09:22:17.760Z,101541.17
2019-04-11T09:24:58.933Z,101529.66
2019-04-11T09:27:47.017Z,101535.13
2019-04-11T09:30:35.036Z,101532.13
2019-04-11T09:33:14.953Z,101534.27
2019-04-11T09:35:57.570Z,101523.91
2019-04-11T09:38:28.901Z,101527.84
2019-04-11T09:41:09.155Z,101526.98
2019-04-11T09:43:40.427Z,101520.45
2019-04-11T09:46:12.526Z,101520.20
2019-04-11T09:48:42.244Z,101513.05
2019-04-11T09:51:17.825Z,101519.53
2019-04-11T09:53:49.203Z,101510.12
2019-04-11T09:56:36.755Z,101511.84
2019-04-11T09:59:09.016Z,101512.16
2019-04-11T10:01:56.137Z,101517.03
2019-04-11T10:04:28.266Z,101507.55
2019-04-11T10:07:01.896Z,101509.64
2019-04-11T10:09:52.633Z,101506.61
2019-04-11T10:12:38.289Z,101505.78
2019-04-11T10:15:13.418Z,101500.70
2019-04-11T10:17:44.919Z,101498.19
2019-04-11T10:20:16.260Z,101500.66
2019-04-11T10:23:05.255Z,101500.55
2019-04-11T10:25:37.229Z,101497.79
2019-04-11T10:28:09.224Z,101501.38
2019-04-11T10:30:57.874Z,101500.80
2019-04-11T10:33:33.119Z,101495.05
2019-04-11T10:36:07.591Z,101502.83
2019-04-11T10:38:39.054Z,101506.55
2019-04-11T10:41:26.387Z,101506.38
2019-04-11T10:43:57.159Z,101513.50
2019-04-11T10:46:34.102Z,101508.72
2019-04-11T10:49:05.423Z,101506.90
2019-04-11T10:51:39.773Z,101508.87
2019-04-11T10:54:11.423Z,101511.05
2019-04-11T10:56:47.560Z,101510.84
2019-04-11T10:59:17.566Z,101516.42
2019-04-11T11:01:48.569Z,101508.81
2019-04-11T11:04:23.450Z,101509.23
2019-04-11T11:06:55.888Z,101521.78
2019-04-11T11:09:37.230Z,101522.27
2019-04-11T11:12:25.419Z,101522.48
2019-04-11T11:15:11.962Z,101510.63
2019-04-11T11:18:12.650Z,101515.50
2019-04-11T11:20:38.549Z,101523.41
2019-04-11T11:23:08.077Z,101528.47
2019-04-11T11:25:39.247Z,101535.05
2019-04-11T11:28:09.557Z,101530.09
2019-04-11T11:30:47.389Z,101520.78
2019-04-11T11:33:20.250Z,101519.17
2019-04-11T11:35:50.045Z,101513.30
2019-04-11T11:38:28.148Z,101520.80
2019-04-11T11:41:18.474Z,101528.09
2019-04-11T11:43:50.016Z,101520.84
2019-04-11T11:46:25.688Z,101516.08
2019-04-11T11:48:54.409Z,101519.64
2019-04-11T11:51:31.171Z,101526.27
2019-04-11T11:54:11.614Z,101513.66
2019-04-11T11:56:44.358Z,101532.14
2019-04-11T11:59:30.165Z,101530.93
2019-04-11T12:02:00.840Z,101524.05
2019-04-11T12:04:48.589Z,101516.55
2019-04-11T12:07:20.968Z,101525.34
2019-04-11T12:10:09.091Z,101528.39
2019-04-11T12:12:40.302Z,101522.97
2019-04-11T12:15:22.496Z,101527.84
2019-04-11T12:18:13.043Z,101522.35
2019-04-11T12:20:59.067Z,101532.83
2019-04-11T12:23:42.820Z,101526.59
2019-04-11T12:26:05.321Z,101523.30
2019-04-11T12:28:41.552Z,101529.83
2019-04-11T12:31:11.698Z,101527.37
2019-04-11T12:33:59.751Z,101528.08
2019-04-11T12:36:31.191Z,101526.00
2019-04-11T12:39:10.231Z,101521.26
2019-04-11T12:41:41.435Z,101522.56
2019-04-11T12:44:29.459Z,101527.37
2019-04-11T12:47:17.150Z,101518.08
2019-04-11T12:49:52.793Z,101521.82
2019-04-11T12:52:31.496Z,101522.23
2019-04-11T12:55:03.227Z,101511.84
2019-04-11T12:57:49.720Z,101512.15
2019-04-11T13:00:19.279Z,101521.20
2019-04-11T13:03:00.583Z,101517.09
2019-04-11T13:05:35.124Z,101515.41
2019-04-11T13:08:22.695Z,101513.84
2019-04-11T13:10:52.279Z,101513.66
2019-04-11T13:13:23.479Z,101514.38
2019-04-11T13:15:55.255Z,101509.03
2019-04-11T13:18:42.484Z,101516.09
2019-04-11T13:21:19.305Z,101513.75
2019-04-11T13:23:54.241Z,101508.17
2019-04-11T13:26:42.100Z,101508.09
2019-04-11T13:29:13.682Z,101506.60
2019-04-11T13:31:45.686Z,101511.29
2019-04-11T13:34:19.637Z,101508.68
2019-04-11T13:37:02.575Z,101508.68
2019-04-11T13:39:32.695Z,101504.25
2019-04-11T13:42:19.561Z,101502.50
2019-04-11T13:44:49.190Z,101501.20
2019-04-11T13:47:25.367Z,101504.97
2019-04-11T13:49:56.666Z,101511.28
2019-04-11T13:52:39.620Z,101503.10
2019-04-11T13:55:11.478Z,101503.28
2019-04-11T13:57:58.746Z,101497.41
2019-04-11T14:00:39.424Z,101495.80
2019-04-11T14:03:10.680Z,101501.11
2019-04-11T14:05:41.878Z,101489.62
2019-04-11T14:08:13.100Z,101485.74
2019-04-11T14:10:59.750Z,101490.05
2019-04-11T14:13:35.363Z,101494.17
2019-04-11T14:16:21.702Z,101475.62
2019-04-11T14:19:07.037Z,101488.19
2019-04-11T14:21:37.273Z,101478.22
2019-04-11T14:24:17.144Z,101482.05
2019-04-11T14:26:48.540Z,101479.01
2019-04-11T14:29:22.175Z,101483.88
2019-04-11T14:31:54.545Z,101477.04
2019-04-11T14:34:25.884Z,101478.16
2019-04-11T14:37:12.995Z,101476.15
2019-04-11T14:39:49.929Z,101470.86
2019-04-11T14:42:23.803Z,101469.91
2019-04-11T14:44:55.226Z,101470.95
2019-04-11T14:47:39.002Z,101468.14
2019-04-11T14:50:11.216Z,101472.83
2019-04-11T14:52:47.211Z,101466.21
2019-04-11T14:55:19.006Z,101466.15
2019-04-11T14:57:54.423Z,101464.82
2019-04-11T15:00:26.055Z,101468.83
2019-04-11T15:03:03.114Z,101463.27
2019-04-11T15:05:49.600Z,101456.23
2019-04-11T15:08:33.107Z,101453.00
2019-04-11T15:11:13.878Z,101462.91
2019-04-11T15:13:48.013Z,101450.90
2019-04-11T15:16:24.611Z,101458.98
2019-04-11T15:18:55.851Z,101454.05
2019-04-11T15:21:27.046Z,101458.82
2019-04-11T15:23:56.815Z,101459.87
2019-04-11T15:26:27.997Z,101466.73
2019-04-11T15:28:59.261Z,101468.66
2019-04-11T15:31:39.857Z,101465.55
2019-04-11T15:34:11.153Z,101467.48
2019-04-11T15:36:42.358Z,101466.34
2019-04-11T15:39:30.158Z,101459.73
2019-04-11T15:42:02.390Z,101456.35
2019-04-11T15:44:49.335Z,101458.28
2019-04-11T15:47:20.718Z,101452.73
2019-04-11T15:50:08.135Z,101449.72
2019-04-11T15:52:39.754Z,101440.13
2019-04-11T15:55:13.660Z,101464.41
2019-04-11T15:57:44.103Z,101463.00
2019-04-11T16:00:19.957Z,101473.64
2019-04-11T16:02:55.028Z,101466.30
2019-04-11T16:05:42.475Z,101467.71
2019-04-11T16:08:13.723Z,101471.51
2019-04-11T16:11:02.952Z,101475.98
2019-04-11T16:13:49.775Z,101473.45
2019-04-11T16:16:21.024Z,101472.80
2019-04-11T16:19:01.814Z,101481.45
2019-04-11T16:21:36.824Z,101486.20
2019-04-11T16:24:11.167Z,101481.45
2019-04-11T16:26:42.373Z,101485.73
2019-04-11T16:29:29.541Z,101492.22
2019-04-11T16:32:00.829Z,101489.38
2019-04-11T16:34:48.566Z,101482.66
2019-04-11T16:37:19.063Z,101482.33
2019-04-11T16:40:02.476Z,101479.98
2019-04-11T16:42:33.659Z,101485.14
2019-04-11T16:45:05.311Z,101493.41
2019-04-11T16:47:36.562Z,101497.59
2019-04-11T16:50:06.824Z,101500.75
2019-04-11T16:52:38.518Z,101499.05
2019-04-11T16:55:10.034Z,101500.55
2019-04-11T16:57:43.899Z,101518.63
2019-04-11T17:00:13.617Z,101507.61
2019-04-11T17:02:43.180Z,101514.91
2019-04-11T17:05:12.917Z,101519.13
2019-04-11T17:08:00.057Z,101514.47
2019-04-11T17:10:47.482Z,101514.63
2019-04-11T17:13:17.373Z,101515.98
2019-04-11T17:15:46.924Z,101516.68
2019-04-11T17:18:18.863Z,101522.31
2019-04-11T17:20:47.780Z,101526.37
2019-04-11T17:23:17.823Z,101527.28
2019-04-11T17:25:52.468Z,101528.41
2019-04-11T17:28:22.766Z,101526.38
2019-04-11T17:30:50.080Z,101522.52
2019-04-11T17:33:20.028Z,101540.19
2019-04-11T17:35:49.674Z,101532.63
2019-04-11T17:38:19.251Z,101534.84
2019-04-11T17:40:48.883Z,101538.84
2019-04-11T17:43:18.410Z,101538.41
2019-04-11T17:45:47.954Z,101547.45
2019-04-11T17:48:17.618Z,101541.81
2019-04-11T17:50:47.180Z,101542.31
2019-04-11T17:53:16.730Z,101552.83
2019-04-11T17:55:48.058Z,101545.03
2019-04-11T17:58:17.863Z,101554.67
2019-04-11T18:00:55.103Z,101553.94
2019-04-11T18:03:24.924Z,101556.20
2019-04-11T18:06:03.703Z,101558.97
2019-04-11T18:08:33.302Z,101560.70
2019-04-11T18:11:02.890Z,101560.72
2019-04-11T18:13:32.712Z,101567.33
2019-04-11T18:16:02.331Z,101565.26
2019-04-11T18:18:34.863Z,101571.70
2019-04-11T18:21:06.982Z,101567.69
2019-04-11T18:23:35.938Z,101581.45
2019-04-11T18:26:05.976Z,101579.77
2019-04-11T18:28:35.681Z,101580.25
2019-04-11T18:31:05.289Z,101573.97
2019-04-11T18:33:34.917Z,101588.98
2019-04-11T18:36:04.638Z,101590.05
2019-04-11T18:38:34.261Z,101593.89
2019-04-11T18:41:03.813Z,101594.33
2019-04-11T18:43:33.416Z,101598.31
2019-04-11T18:46:02.942Z,101602.30
2019-04-11T18:48:32.502Z,101607.03
2019-04-11T18:51:02.075Z,101607.17
2019-04-11T18:53:31.637Z,101605.91
2019-04-11T18:56:01.729Z,101612.46
2019-04-11T18:58:33.692Z,101613.33
2019-04-11T19:01:03.426Z,101614.20
2019-04-11T19:03:36.303Z,101612.12
2019-04-11T19:06:04.602Z,101617.31
2019-04-11T19:08:34.313Z,101616.53
2019-04-11T19:11:04.239Z,101611.91
2019-04-11T19:13:34.115Z,101625.03
2019-04-11T19:16:03.642Z,101619.45
2019-04-11T19:18:33.213Z,101618.97
2019-04-11T19:21:03.854Z,101633.25
2019-04-11T19:23:33.669Z,101629.41
2019-04-11T19:26:03.291Z,101618.27
2019-04-11T19:28:32.914Z,101625.59
2019-04-11T19:31:02.543Z,101629.48
2019-04-11T19:33:34.294Z,101619.57
2019-04-11T19:36:03.711Z,101616.14
2019-04-11T19:38:35.003Z,101619.17
2019-04-11T19:41:04.639Z,101619.22
2019-04-11T19:43:35.300Z,101625.36
2019-04-11T19:46:05.243Z,101628.39
2019-04-11T19:48:34.932Z,101619.81
2019-04-11T19:51:04.485Z,101616.00
2019-04-11T19:53:34.139Z,101622.49
2019-04-11T19:56:05.915Z,101619.97
2019-04-11T19:58:35.555Z,101621.73
2019-04-11T20:01:05.236Z,101626.50
2019-04-11T20:03:34.900Z,101620.95
2019-04-11T20:06:04.475Z,101620.63
2019-04-11T20:08:34.380Z,101624.98
2019-04-11T20:11:04.143Z,101622.93
2019-04-11T20:13:33.718Z,101627.76
2019-04-11T20:16:03.342Z,101625.56
2019-04-11T20:18:32.946Z,101629.05
2019-04-11T20:21:07.319Z,101619.14
2019-04-11T20:23:34.193Z,101628.62
2019-04-11T20:26:03.783Z,101627.00
2019-04-11T20:28:33.387Z,101622.77
2019-04-11T20:31:02.959Z,101629.31
2019-04-11T20:33:34.659Z,101625.95
2019-04-11T20:36:03.763Z,101629.84
2019-04-11T20:38:33.310Z,101629.84
2019-04-11T20:41:03.126Z,101626.81
2019-04-11T20:43:32.726Z,101626.84
2019-04-11T20:46:03.156Z,101626.94
2019-04-11T20:48:35.154Z,101624.81
2019-04-11T20:51:04.012Z,101629.63
2019-04-11T20:53:36.711Z,101623.14
2019-04-11T20:56:04.910Z,101614.09
2019-04-11T20:58:34.467Z,101614.58
2019-04-11T21:01:04.753Z,101618.93
2019-04-11T21:03:34.310Z,101619.36
2019-04-11T21:06:04.879Z,101623.77
2019-04-11T21:08:36.720Z,101628.92
2019-04-11T21:11:05.820Z,101631.08
2019-04-11T21:13:38.168Z,101628.95
2019-04-11T21:16:06.629Z,101623.30
2019-04-11T21:18:36.664Z,101624.62
2019-04-11T21:21:06.704Z,101624.66
2019-04-11T21:23:36.513Z,101637.61
2019-04-11T21:26:06.248Z,101640.25
2019-04-11T21:28:36.045Z,101636.41
2019-04-11T21:31:05.700Z,101640.30
2019-04-11T21:33:36.311Z,101638.09
2019-04-11T21:36:06.294Z,101646.70
2019-04-11T21:38:36.193Z,101648.43
2019-04-11T21:41:06.673Z,101649.30
2019-04-11T21:43:38.061Z,101643.66
2019-04-11T21:46:08.380Z,101645.41
2019-04-11T21:48:38.171Z,101648.45
2019-04-11T21:51:11.379Z,101654.06
2019-04-11T21:53:44.404Z,101655.44
2019-04-11T21:56:11.931Z,101655.91
2019-04-11T21:58:41.876Z,101656.80
2019-04-11T22:01:15.240Z,101663.30
2019-04-11T22:03:45.768Z,101665.89
2019-04-11T22:06:15.692Z,101675.80
2019-04-11T22:08:45.733Z,101668.45
2019-04-11T22:11:15.545Z,101664.64
2019-04-11T22:13:45.560Z,101668.52
2019-04-11T22:16:15.574Z,101657.30
2019-04-11T22:18:45.570Z,101659.92
2019-04-11T22:21:15.529Z,101658.61
2019-04-11T22:23:48.942Z,101651.31
2019-04-11T22:26:17.773Z,101657.78
2019-04-11T22:28:47.574Z,101643.61
2019-04-11T22:31:17.373Z,101653.08
2019-04-11T22:33:51.169Z,101665.13
2019-04-11T22:36:22.498Z,101658.67
2019-04-11T22:38:52.521Z,101667.73
2019-04-11T22:41:22.074Z,101663.89
2019-04-11T22:43:51.614Z,101669.05
2019-04-11T22:46:21.257Z,101668.55
2019-04-11T22:48:50.860Z,101668.16
2019-04-11T22:51:20.451Z,101666.44
2019-04-11T22:53:59.913Z,101669.07
2019-04-11T22:56:21.545Z,101666.07
2019-04-11T22:58:51.420Z,101670.36
2019-04-11T23:01:20.986Z,101666.05
2019-04-11T23:03:54.818Z,101660.88
2019-04-11T23:06:24.314Z,101654.45
2019-04-11T23:08:54.143Z,101663.87
2019-04-11T23:11:23.674Z,101663.44
2019-04-11T23:13:53.291Z,101663.45
2019-04-11T23:16:23.038Z,101663.84
2019-04-11T23:18:52.583Z,101660.78
2019-04-11T23:21:22.166Z,101658.65
2019-04-11T23:23:51.816Z,101656.95
2019-04-11T23:26:21.487Z,101664.26
2019-04-11T23:28:51.053Z,101660.37
2019-04-11T23:31:21.099Z,101664.24
2019-04-11T23:33:52.100Z,101663.38
2019-04-11T23:36:22.191Z,101663.81
2019-04-11T23:38:52.652Z,101671.53
2019-04-11T23:41:23.130Z,101670.66
2019-04-11T23:43:52.672Z,101674.55
2019-04-11T23:46:22.202Z,101671.06
2019-04-11T23:48:54.733Z,101675.38
2019-04-11T23:51:26.232Z,101683.59
2019-04-11T23:53:54.283Z,101674.52
2019-04-11T23:56:23.905Z,101677.97
2019-04-11T23:58:53.484Z,101678.41
